createdAt,value
2023-01-29T00:01:25.905Z,2.50
2023-01-29T00:06:28.115Z,2.60
2023-01-29T00:11:30.252Z,2.70
2023-01-29T00:16:33.776Z,2.90
2023-01-29T00:21:36.064Z,2.90
2023-01-29T00:26:38.246Z,2.70
2023-01-29T00:31:45.523Z,2.60
2023-01-29T00:36:47.706Z,2.70
2023-01-29T00:41:49.976Z,2.80
2023-01-29T00:46:53.620Z,2.80
2023-01-29T00:51:56.173Z,2.80
2023-01-29T00:56:58.390Z,2.80
2023-01-29T01:02:02.051Z,2.80
2023-01-29T01:07:04.621Z,2.80
2023-01-29T01:12:07.215Z,2.80
2023-01-29T01:17:10.809Z,2.90
2023-01-29T01:22:13.062Z,2.90
2023-01-29T01:27:15.443Z,3.00
2023-01-29T01:32:19.404Z,3.00
2023-01-29T01:37:21.830Z,3.10
2023-01-29T01:42:27.484Z,3.00
2023-01-29T01:47:37.885Z,3.00
2023-01-29T01:52:46.651Z,3.00
2023-01-29T01:57:57.058Z,2.90
2023-01-29T02:03:03.587Z,2.90
2023-01-29T02:08:06.355Z,3.00
2023-01-29T02:13:09.585Z,3.00
2023-01-29T02:18:14.202Z,3.00
2023-01-29T02:24:16.094Z,2.90
2023-01-29T02:29:29.610Z,2.90
2023-01-29T02:34:45.645Z,2.90
2023-01-29T02:40:00.736Z,3.00
2023-01-29T02:45:15.650Z,2.80
2023-01-29T02:50:25.748Z,2.90
2023-01-29T02:55:36.695Z,2.90
2023-01-29T03:00:45.634Z,2.90
2023-01-29T03:05:58.078Z,2.80
2023-01-29T03:11:06.169Z,2.80
2023-01-29T03:16:22.450Z,2.80
2023-01-29T03:21:33.843Z,2.80
2023-01-29T03:26:37.056Z,2.90
2023-01-29T03:31:41.489Z,2.90
2023-01-29T03:36:53.381Z,2.90
2023-01-29T03:42:02.347Z,2.80
2023-01-29T03:47:18.628Z,2.80
2023-01-29T03:52:27.299Z,2.80
2023-01-29T03:57:39.702Z,2.80
2023-01-29T04:03:01.310Z,2.90
2023-01-29T04:08:10.555Z,2.90
2023-01-29T04:13:16.336Z,2.80
2023-01-29T04:18:21.714Z,2.80
2023-01-29T04:23:38.490Z,2.80
2023-01-29T04:28:59.127Z,2.90
2023-01-29T04:34:20.793Z,3.00
2023-01-29T04:39:31.843Z,3.00
2023-01-29T04:44:41.557Z,3.10
2023-01-29T04:49:56.743Z,3.00
2023-01-29T04:55:06.293Z,2.90
2023-01-29T05:00:17.229Z,3.00
2023-01-29T05:05:22.298Z,3.00
2023-01-29T05:10:26.790Z,3.00
2023-01-29T05:15:37.796Z,2.90
2023-01-29T05:20:44.334Z,3.00
2023-01-29T05:25:48.146Z,3.00
2023-01-29T05:30:53.128Z,3.00
2023-01-29T05:35:59.719Z,2.90
2023-01-29T05:41:02.030Z,2.90
2023-01-29T05:46:04.483Z,2.90
2023-01-29T05:51:08.114Z,2.90
2023-01-29T05:56:10.395Z,2.90
2023-01-29T06:01:15.297Z,2.80
2023-01-29T06:06:19.204Z,2.80
2023-01-29T06:11:21.517Z,2.80
2023-01-29T06:16:23.952Z,2.90
2023-01-29T06:21:27.716Z,2.90
2023-01-29T06:26:29.951Z,2.80
2023-01-29T06:31:40.037Z,2.60
2023-01-29T06:36:43.684Z,2.60
2023-01-29T06:41:45.838Z,2.70
2023-01-29T06:46:48.179Z,2.70
2023-01-29T06:51:51.726Z,2.80
2023-01-29T06:56:53.974Z,2.50
2023-01-29T07:01:56.387Z,2.80
2023-01-29T07:07:01.037Z,2.90
2023-01-29T07:12:04.597Z,2.50
2023-01-29T07:17:06.913Z,2.70
2023-01-29T07:22:10.581Z,2.60
2023-01-29T07:27:12.882Z,2.70
2023-01-29T07:32:15.174Z,2.70
2023-01-29T07:37:18.976Z,2.80
2023-01-29T07:42:21.290Z,2.80
2023-01-29T07:47:23.528Z,2.90
2023-01-29T07:52:29.048Z,3.00
2023-01-29T07:57:31.345Z,2.90
2023-01-29T08:02:33.610Z,3.00
2023-01-29T08:07:37.325Z,3.00
2023-01-29T08:12:39.631Z,3.00
2023-01-29T08:17:56.080Z,3.10
2023-01-29T08:23:01.664Z,3.20
2023-01-29T08:28:05.236Z,3.10
2023-01-29T08:33:07.567Z,3.00
2023-01-29T08:38:11.223Z,3.20
2023-01-29T08:43:15.766Z,3.20
2023-01-29T08:48:18.267Z,3.20
2023-01-29T08:53:21.902Z,3.00
2023-01-29T08:58:24.229Z,3.10
2023-01-29T09:03:26.412Z,3.10
2023-01-29T09:08:29.945Z,3.20
2023-01-29T09:13:32.657Z,3.30
2023-01-29T09:18:34.910Z,3.40
2023-01-29T09:23:38.710Z,3.40
2023-01-29T09:28:40.838Z,3.40
2023-01-29T09:33:43.074Z,3.60
2023-01-29T09:38:46.793Z,3.40
2023-01-29T09:43:54.915Z,3.40
2023-01-29T09:49:04.040Z,3.40
2023-01-29T09:54:19.359Z,3.50
2023-01-29T09:59:24.726Z,3.50
2023-01-29T10:05:16.201Z,3.70
2023-01-29T10:10:37.173Z,3.80
2023-01-29T10:16:05.029Z,3.70
2023-01-29T10:21:34.076Z,3.80
2023-01-29T10:26:38.472Z,3.90
2023-01-29T10:31:40.977Z,3.90
2023-01-29T10:36:47.584Z,4.00
2023-01-29T10:42:13.226Z,3.90
2023-01-29T10:47:45.291Z,3.80
2023-01-29T10:53:08.953Z,4.10
2023-01-29T10:58:29.719Z,4.00
2023-01-29T11:03:34.042Z,4.00
2023-01-29T11:08:43.374Z,4.20
2023-01-29T11:13:55.706Z,4.20
2023-01-29T11:19:01.193Z,4.20
2023-01-29T11:24:13.215Z,4.00
2023-01-29T11:29:39.431Z,4.00
2023-01-29T11:35:01.019Z,4.10
2023-01-29T11:40:40.292Z,4.20
2023-01-29T11:45:44.834Z,4.30
2023-01-29T11:50:55.475Z,4.40
2023-01-29T11:55:57.884Z,4.40
2023-01-29T12:01:03.605Z,4.30
2023-01-29T12:06:18.395Z,4.40
2023-01-29T12:11:28.575Z,4.30
2023-01-29T12:16:39.453Z,4.40
2023-01-29T12:21:48.793Z,4.40
2023-01-29T12:27:01.161Z,4.40
2023-01-29T12:32:26.693Z,4.20
2023-01-29T12:37:45.188Z,4.20
2023-01-29T12:42:55.531Z,4.30
2023-01-29T12:48:06.146Z,4.30
2023-01-29T12:53:26.721Z,4.40
2023-01-29T12:58:35.098Z,4.30
2023-01-29T13:03:51.794Z,4.30
2023-01-29T13:08:59.885Z,4.50
2023-01-29T13:14:12.816Z,4.20
2023-01-29T13:19:27.137Z,4.20
2023-01-29T13:24:39.704Z,4.00
2023-01-29T13:29:44.624Z,4.10
2023-01-29T13:34:50.955Z,4.10
2023-01-29T13:39:55.302Z,4.20
2023-01-29T13:45:06.573Z,4.20
2023-01-29T13:50:21.426Z,4.30
2023-01-29T13:55:30.063Z,4.30
2023-01-29T14:00:51.618Z,4.40
2023-01-29T14:06:02.854Z,4.40
2023-01-29T14:11:35.456Z,4.10
2023-01-29T14:16:38.354Z,4.30
2023-01-29T14:21:50.389Z,4.40
2023-01-29T14:26:55.835Z,4.40
2023-01-29T14:32:09.223Z,4.30
2023-01-29T14:37:24.956Z,4.30
2023-01-29T14:42:33.766Z,4.30
2023-01-29T14:48:00.693Z,4.40
2023-01-29T14:53:12.956Z,4.40
2023-01-29T14:58:19.828Z,4.30
2023-01-29T15:03:39.784Z,4.30
2023-01-29T15:08:52.243Z,4.30
2023-01-29T15:14:02.698Z,4.20
2023-01-29T15:19:16.628Z,4.20
2023-01-29T15:24:20.175Z,4.20
2023-01-29T15:29:25.768Z,4.10
2023-01-29T15:34:28.261Z,4.10
2023-01-29T15:39:31.988Z,4.00
2023-01-29T15:44:35.291Z,3.90
2023-01-29T15:49:40.187Z,4.00
2023-01-29T15:54:44.566Z,4.00
2023-01-29T15:59:47.939Z,3.90
2023-01-29T16:04:51.556Z,3.80
2023-01-29T16:09:56.799Z,3.70
2023-01-29T16:15:02.528Z,3.90
2023-01-29T16:20:20.073Z,4.00
2023-01-29T16:25:24.706Z,3.80
2023-01-29T16:30:27.599Z,3.80
2023-01-29T16:35:30.710Z,3.80
2023-01-29T16:40:37.552Z,3.90
2023-01-29T16:45:40.153Z,3.80
2023-01-29T16:50:54.903Z,4.00
2023-01-29T16:56:03.863Z,4.00
2023-01-29T17:01:11.318Z,4.00
2023-01-29T17:06:23.176Z,4.10
2023-01-29T17:11:34.511Z,4.00
2023-01-29T17:16:49.971Z,4.00
2023-01-29T17:21:52.097Z,3.80
2023-01-29T17:26:56.775Z,3.90
2023-01-29T17:31:59.109Z,4.00
2023-01-29T17:37:01.437Z,4.00
2023-01-29T17:42:05.249Z,4.00
2023-01-29T17:47:12.105Z,3.90
2023-01-29T17:52:14.240Z,3.50
2023-01-29T17:57:18.107Z,3.70
2023-01-29T18:02:28.874Z,3.80
2023-01-29T18:07:32.620Z,3.80
2023-01-29T18:13:03.959Z,3.80
2023-01-29T18:18:10.211Z,4.00
2023-01-29T18:23:13.161Z,3.70
2023-01-29T18:28:17.809Z,3.80
2023-01-29T18:33:20.136Z,3.80
2023-01-29T18:38:22.793Z,3.70
2023-01-29T18:43:27.147Z,3.90
2023-01-29T18:48:29.554Z,3.90
2023-01-29T18:53:31.944Z,3.90
2023-01-29T18:58:37.191Z,4.00
2023-01-29T19:03:40.872Z,3.90
2023-01-29T19:08:43.107Z,3.80
2023-01-29T19:13:46.724Z,3.90
2023-01-29T19:18:49.276Z,3.90
2023-01-29T19:23:51.998Z,4.00
2023-01-29T19:28:55.520Z,3.90
2023-01-29T19:33:57.816Z,4.00
2023-01-29T19:39:00.017Z,4.00
2023-01-29T19:44:04.048Z,3.90
2023-01-29T19:49:06.339Z,3.90
2023-01-29T19:54:10.929Z,3.70
2023-01-29T19:59:14.978Z,3.60
2023-01-29T20:04:17.446Z,3.60
2023-01-29T20:09:19.804Z,3.70
2023-01-29T20:14:23.406Z,3.70
2023-01-29T20:19:25.543Z,3.80
2023-01-29T20:24:27.899Z,3.70
2023-01-29T20:29:32.600Z,3.70
2023-01-29T20:34:35.341Z,3.80
2023-01-29T20:39:37.610Z,3.60
2023-01-29T20:44:41.168Z,3.70
2023-01-29T20:49:43.348Z,3.70
2023-01-29T20:54:45.498Z,3.70
2023-01-29T20:59:49.372Z,3.70
2023-01-29T21:04:51.676Z,3.80
2023-01-29T21:09:54.267Z,3.90
2023-01-29T21:14:58.329Z,3.80
2023-01-29T21:20:01.420Z,3.90
2023-01-29T21:25:04.298Z,4.00
2023-01-29T21:30:10.302Z,3.80
2023-01-29T21:35:12.695Z,3.90
2023-01-29T21:40:15.384Z,3.80
2023-01-29T21:45:20.068Z,3.80
2023-01-29T21:50:22.292Z,3.80
2023-01-29T21:55:24.658Z,3.90
2023-01-29T22:00:28.617Z,4.00
2023-01-29T22:05:30.753Z,4.00
2023-01-29T22:10:32.879Z,3.90
2023-01-29T22:15:36.497Z,3.70
2023-01-29T22:20:38.636Z,3.80
2023-01-29T22:25:40.783Z,4.00
2023-01-29T22:30:44.529Z,4.00
2023-01-29T22:35:46.674Z,3.80
2023-01-29T22:40:50.049Z,3.90
2023-01-29T22:45:53.573Z,3.90
2023-01-29T22:50:57.678Z,4.00
2023-01-29T22:55:59.759Z,3.90
2023-01-29T23:01:04.196Z,3.90
2023-01-29T23:06:06.468Z,3.80
2023-01-29T23:11:14.684Z,4.00
2023-01-29T23:16:20.718Z,3.80
2023-01-29T23:21:26.485Z,3.80
2023-01-29T23:26:29.117Z,3.80
2023-01-29T23:31:32.807Z,3.90
2023-01-29T23:36:35.076Z,3.80
2023-01-29T23:41:37.422Z,3.80
2023-01-29T23:46:41.209Z,3.70
2023-01-29T23:51:43.477Z,3.80
2023-01-29T23:56:45.801Z,3.60
